Time;durP1;ratioP1;P1;durP2;ratioP2;P2;SDS_P1;SDS_P2;PMS_P1;PMS_P2;Temp;Humidity;BMP_temperature;BMP_pressure;BME280_temperature;BME280_humidity;BME280_pressure;Samples;Min_cycle;Max_cycle;Signal;HPM_P1;HPM_P2
2024/03/26 00:02:03;;;;;;;218.17;63.87;;;;;;;;;;4977196;28;20656;-45
2024/03/26 00:04:31;;;;;;;217.18;62.80;;;;;;;;;;4990044;28;20437;-45
2024/03/26 00:06:57;;;;;;;217.18;62.80;;;;;;;;;;4992537;28;20193;-45
2024/03/26 00:09:24;;;;;;;218.60;66.03;;;;;;;;;;4992844;28;20177;-46
2024/03/26 00:11:51;;;;;;;212.68;59.70;;;;;;;;;;4992743;28;20467;-45
2024/03/26 00:14:17;;;;;;;216.40;63.35;;;;;;;;;;4992623;28;20210;-46
2024/03/26 00:16:45;;;;;;;215.37;61.83;;;;;;;;;;4992239;28;20881;-45
2024/03/26 00:19:12;;;;;;;215.40;61.55;;;;;;;;;;4992599;28;20735;-46
2024/03/26 00:21:38;;;;;;;217.43;63.65;;;;;;;;;;4992842;28;20186;-46
2024/03/26 00:24:04;;;;;;;214.65;61.65;;;;;;;;;;4992594;28;20217;-46
2024/03/26 00:26:32;;;;;;;218.70;65.97;;;;;;;;;;4992181;28;20583;-46
2024/03/26 00:28:58;;;;;;;216.30;62.65;;;;;;;;;;4992475;28;20667;-46
2024/03/26 00:31:24;;;;;;;215.27;62.67;;;;;;;;;;4992249;28;20209;-46
2024/03/26 00:33:51;;;;;;;216.43;66.03;;;;;;;;;;4992237;28;20428;-45
2024/03/26 00:36:20;;;;;;;215.50;62.70;;;;;;;;;;4992031;28;20406;-46
2024/03/26 00:38:46;;;;;;;216.23;64.32;;;;;;;;;;4992089;28;20178;-46
2024/03/26 00:41:12;;;;;;;215.97;66.70;;;;;;;;;;4992281;28;20542;-46
2024/03/26 00:43:38;;;;;;;218.80;66.60;;;;;;;;;;4989957;28;20433;-46
2024/03/26 00:46:06;;;;;;;218.60;65.65;;;;;;;;;;4991913;28;20435;-46
2024/03/26 00:48:34;;;;;;;216.52;64.07;;;;;;;;;;4991482;28;20652;-46
2024/03/26 00:50:59;;;;;;;215.90;61.78;;;;;;;;;;4991994;28;20205;-46
2024/03/26 00:53:27;;;;;;;216.27;63.00;;;;;;;;;;4991993;28;20197;-46
2024/03/26 00:55:53;;;;;;;216.57;63.13;;;;;;;;;;4991788;28;20442;-46
2024/03/26 00:58:20;;;;;;;215.60;63.03;;;;;;;;;;4991919;28;20347;-45
2024/03/26 01:00:47;;;;;;;219.00;66.45;;;;;;;;;;4992455;28;20448;-47
2024/03/26 01:03:13;;;;;;;217.15;62.92;;;;;;;;;;4991975;28;20201;-46
2024/03/26 01:05:39;;;;;;;218.50;64.53;;;;;;;;;;4991749;28;20188;-47
2024/03/26 01:08:05;;;;;;;216.10;63.20;;;;;;;;;;4991789;28;20180;-47
2024/03/26 01:10:32;;;;;;;217.57;67.88;;;;;;;;;;4991611;28;20858;-46
2024/03/26 01:12:58;;;;;;;218.27;64.77;;;;;;;;;;4987147;28;20281;-46
2024/03/26 01:15:24;;;;;;;217.40;63.78;;;;;;;;;;4987931;28;20774;-46
2024/03/26 01:17:50;;;;;;;212.40;60.07;;;;;;;;;;4991684;28;20195;-45
2024/03/26 01:20:16;;;;;;;213.60;60.87;;;;;;;;;;4991831;28;20475;-46
2024/03/26 01:22:42;;;;;;;216.73;62.20;;;;;;;;;;4991325;28;20413;-45
2024/03/26 01:25:08;;;;;;;218.53;67.57;;;;;;;;;;4991638;28;20196;-46
2024/03/26 01:27:34;;;;;;;215.90;63.63;;;;;;;;;;4991518;28;20408;-47
2024/03/26 01:30:02;;;;;;;215.18;61.78;;;;;;;;;;4991396;28;20209;-46
2024/03/26 01:32:28;;;;;;;214.65;62.85;;;;;;;;;;4991322;28;20905;-46
2024/03/26 01:34:54;;;;;;;219.75;67.20;;;;;;;;;;4991523;28;20189;-46
2024/03/26 01:37:20;;;;;;;220.20;68.70;;;;;;;;;;4991186;28;20555;-46
2024/03/26 01:39:47;;;;;;;216.90;64.03;;;;;;;;;;4991335;28;20482;-46
2024/03/26 01:42:13;;;;;;;217.73;65.43;;;;;;;;;;4990524;28;20756;-47
2024/03/26 01:44:40;;;;;;;217.83;65.93;;;;;;;;;;4990200;28;20203;-47
2024/03/26 01:47:06;;;;;;;212.35;60.75;;;;;;;;;;4991290;28;20458;-46
2024/03/26 01:49:34;;;;;;;212.27;60.92;;;;;;;;;;4990226;28;20173;-47
2024/03/26 01:52:01;;;;;;;215.25;62.75;;;;;;;;;;4984856;28;20177;-46
2024/03/26 01:54:30;;;;;;;214.68;62.50;;;;;;;;;;4991141;28;20209;-47
2024/03/26 01:56:57;;;;;;;216.02;64.30;;;;;;;;;;4990788;28;20239;-47
2024/03/26 01:59:24;;;;;;;217.27;63.47;;;;;;;;;;4991289;28;20174;-46
2024/03/26 02:01:50;;;;;;;214.93;62.00;;;;;;;;;;4994308;28;20668;-47
2024/03/26 02:04:16;;;;;;;216.07;63.90;;;;;;;;;;4994845;28;20222;-46
2024/03/26 02:06:42;;;;;;;220.07;69.23;;;;;;;;;;4994388;28;20540;-47
2024/03/26 02:09:08;;;;;;;214.30;64.18;;;;;;;;;;4995292;28;20405;-47
2024/03/26 02:11:34;;;;;;;213.33;62.10;;;;;;;;;;4994713;28;20567;-46
2024/03/26 02:14:02;;;;;;;216.60;65.20;;;;;;;;;;4994717;28;20523;-45
2024/03/26 02:16:28;;;;;;;217.73;66.13;;;;;;;;;;4994597;28;20428;-46
2024/03/26 02:18:54;;;;;;;216.13;62.60;;;;;;;;;;4989008;28;20188;-46
2024/03/26 02:21:20;;;;;;;215.83;65.50;;;;;;;;;;4977877;28;20410;-47
2024/03/26 02:23:48;;;;;;;217.57;67.30;;;;;;;;;;4979975;28;20444;-46
2024/03/26 02:26:17;;;;;;;215.07;64.28;;;;;;;;;;4977839;28;20416;-47
2024/03/26 02:28:43;;;;;;;216.25;64.88;;;;;;;;;;4980512;28;20484;-47
2024/03/26 02:31:10;;;;;;;219.40;70.22;;;;;;;;;;4983865;28;20207;-46
2024/03/26 02:33:36;;;;;;;214.38;60.78;;;;;;;;;;4979790;28;20199;-47
2024/03/26 02:36:02;;;;;;;215.77;64.30;;;;;;;;;;4978196;28;20593;-45
2024/03/26 02:38:30;;;;;;;217.35;64.70;;;;;;;;;;4978467;28;20409;-47
2024/03/26 02:40:56;;;;;;;217.15;65.05;;;;;;;;;;4979319;28;20547;-46
2024/03/26 02:43:22;;;;;;;217.30;65.37;;;;;;;;;;4978078;28;20200;-47
2024/03/26 02:45:49;;;;;;;217.88;64.22;;;;;;;;;;4979440;28;20485;-47
2024/03/26 02:48:15;;;;;;;215.63;63.25;;;;;;;;;;4977665;28;20215;-46
2024/03/26 02:50:41;;;;;;;215.63;64.60;;;;;;;;;;4979684;28;20233;-48
2024/03/26 02:53:07;;;;;;;214.77;62.75;;;;;;;;;;4977976;28;20424;-46
2024/03/26 02:55:33;;;;;;;219.53;65.17;;;;;;;;;;4978985;28;20174;-48
2024/03/26 02:57:59;;;;;;;217.07;64.73;;;;;;;;;;4978103;28;20440;-47
2024/03/26 03:00:26;;;;;;;219.27;65.53;;;;;;;;;;4978260;28;20414;-47
2024/03/26 03:02:52;;;;;;;216.77;63.88;;;;;;;;;;4978819;28;20572;-47
2024/03/26 03:05:18;;;;;;;219.27;67.67;;;;;;;;;;4977489;28;20269;-46
2024/03/26 03:07:44;;;;;;;222.97;72.17;;;;;;;;;;4977359;28;20419;-47
2024/03/26 03:10:12;;;;;;;221.17;68.27;;;;;;;;;;4977621;28;20461;-47
2024/03/26 03:12:39;;;;;;;222.90;70.40;;;;;;;;;;4978766;28;20419;-46
2024/03/26 03:15:05;;;;;;;228.75;73.88;;;;;;;;;;4977330;28;20264;-46
2024/03/26 03:17:31;;;;;;;218.90;66.28;;;;;;;;;;4978442;28;20642;-47
2024/03/26 03:19:58;;;;;;;218.00;64.43;;;;;;;;;;4978065;28;20252;-46
2024/03/26 03:22:24;;;;;;;218.10;66.38;;;;;;;;;;4977212;28;20926;-46
2024/03/26 03:24:50;;;;;;;216.20;63.73;;;;;;;;;;4979068;28;20216;-46
2024/03/26 03:27:16;;;;;;;219.37;67.83;;;;;;;;;;4977349;28;20418;-46
2024/03/26 03:29:42;;;;;;;217.73;63.83;;;;;;;;;;4978687;28;20406;-46
2024/03/26 03:32:08;;;;;;;215.73;63.60;;;;;;;;;;4975607;28;20439;-47
2024/03/26 03:34:33;;;;;;;216.80;64.40;;;;;;;;;;4976849;28;20958;-47
2024/03/26 03:37:01;;;;;;;223.40;71.97;;;;;;;;;;4977164;28;20912;-47
2024/03/26 03:39:27;;;;;;;217.00;64.70;;;;;;;;;;4974637;28;20460;-46
2024/03/26 03:41:53;;;;;;;216.07;62.73;;;;;;;;;;4978173;28;20176;-47
2024/03/26 03:44:19;;;;;;;219.47;68.33;;;;;;;;;;4976840;28;20441;-47
2024/03/26 03:46:45;;;;;;;218.38;64.85;;;;;;;;;;4976596;28;20416;-47
2024/03/26 03:49:10;;;;;;;217.70;65.53;;;;;;;;;;4977031;28;20183;-47
2024/03/26 03:51:36;;;;;;;217.87;66.50;;;;;;;;;;4978267;28;20461;-46
2024/03/26 03:54:04;;;;;;;217.57;64.73;;;;;;;;;;4975045;28;20519;-47
2024/03/26 03:56:30;;;;;;;219.57;64.93;;;;;;;;;;4977278;28;20406;-46
2024/03/26 03:58:56;;;;;;;220.77;69.53;;;;;;;;;;4977720;28;20672;-47
2024/03/26 04:01:21;;;;;;;221.90;72.03;;;;;;;;;;4975286;28;20778;-46
2024/03/26 04:03:47;;;;;;;219.90;66.97;;;;;;;;;;4976473;28;20858;-46
2024/03/26 04:06:15;;;;;;;216.27;63.70;;;;;;;;;;4976238;28;20409;-46
2024/03/26 04:08:41;;;;;;;217.93;65.13;;;;;;;;;;4978082;28;20183;-48
2024/03/26 04:11:06;;;;;;;219.07;68.43;;;;;;;;;;4976424;28;20209;-46
2024/03/26 04:13:34;;;;;;;216.40;64.37;;;;;;;;;;4976368;28;20436;-46
2024/03/26 04:16:03;;;;;;;218.20;66.00;;;;;;;;;;4976253;28;20417;-46
2024/03/26 04:18:29;;;;;;;220.27;67.70;;;;;;;;;;4974058;28;20753;-46
2024/03/26 04:20:55;;;;;;;218.87;67.23;;;;;;;;;;4982110;28;20213;-46
2024/03/26 04:23:22;;;;;;;217.87;66.03;;;;;;;;;;4987968;28;20983;-46
2024/03/26 04:25:58;;;;;;;222.43;68.03;;;;;;;;;;4991702;28;20461;-47
2024/03/26 04:28:27;;;;;;;219.05;66.18;;;;;;;;;;4992641;28;20202;-46
2024/03/26 04:30:53;;;;;;;219.23;68.15;;;;;;;;;;4992622;28;20242;-47
2024/03/26 04:33:18;;;;;;;221.60;68.80;;;;;;;;;;4992208;28;20228;-46
2024/03/26 04:35:45;;;;;;;216.33;62.80;;;;;;;;;;4992018;28;20788;-46
2024/03/26 04:38:12;;;;;;;216.77;65.10;;;;;;;;;;4992208;28;20417;-47
2024/03/26 04:40:38;;;;;;;221.75;69.70;;;;;;;;;;4984280;28;20169;-46
2024/03/26 04:43:05;;;;;;;221.45;70.22;;;;;;;;;;4992417;28;20210;-47
2024/03/26 04:45:31;;;;;;;219.52;67.30;;;;;;;;;;4991711;28;20201;-46
2024/03/26 04:47:57;;;;;;;221.07;68.70;;;;;;;;;;4991929;28;20264;-46
2024/03/26 04:50:24;;;;;;;220.83;71.57;;;;;;;;;;4992112;28;20469;-47
2024/03/26 04:52:52;;;;;;;217.70;63.83;;;;;;;;;;4991809;28;20431;-46
2024/03/26 04:55:18;;;;;;;220.35;67.38;;;;;;;;;;4991719;28;20715;-46
2024/03/26 04:57:44;;;;;;;218.33;64.77;;;;;;;;;;4991776;28;21259;-47
2024/03/26 05:00:13;;;;;;;220.57;66.97;;;;;;;;;;4991756;28;20422;-45
2024/03/26 05:02:40;;;;;;;223.10;69.60;;;;;;;;;;4991915;28;20182;-47
2024/03/26 05:05:06;;;;;;;220.00;65.80;;;;;;;;;;4983600;28;20186;-47
2024/03/26 05:07:34;;;;;;;217.57;64.65;;;;;;;;;;4991608;28;20672;-45
2024/03/26 05:10:00;;;;;;;219.13;65.47;;;;;;;;;;4991698;28;20213;-46
2024/03/26 05:12:29;;;;;;;219.43;66.47;;;;;;;;;;4991616;28;20183;-46
2024/03/26 05:14:55;;;;;;;218.75;65.47;;;;;;;;;;4991594;28;20263;-46
2024/03/26 05:17:21;;;;;;;221.45;69.60;;;;;;;;;;4991487;28;20171;-47
2024/03/26 05:19:47;;;;;;;220.18;68.82;;;;;;;;;;4991680;28;20520;-46
2024/03/26 05:22:13;;;;;;;221.32;68.07;;;;;;;;;;4991784;28;20553;-47
2024/03/26 05:24:40;;;;;;;221.20;68.23;;;;;;;;;;4991587;28;20221;-48
2024/03/26 05:27:06;;;;;;;218.82;66.90;;;;;;;;;;4991237;28;20465;-47
2024/03/26 05:29:35;;;;;;;219.82;66.05;;;;;;;;;;4991323;28;20205;-47
2024/03/26 05:32:02;;;;;;;221.57;68.80;;;;;;;;;;4991460;28;20215;-47
2024/03/26 05:34:28;;;;;;;220.48;67.07;;;;;;;;;;4992813;28;20204;-46
2024/03/26 05:36:55;;;;;;;222.30;70.55;;;;;;;;;;4995498;28;20177;-48
2024/03/26 05:39:21;;;;;;;219.95;66.28;;;;;;;;;;4995692;28;20182;-47
2024/03/26 05:41:48;;;;;;;218.30;67.30;;;;;;;;;;4995461;28;20179;-48
2024/03/26 05:44:14;;;;;;;217.95;63.08;;;;;;;;;;4993339;28;20446;-47
2024/03/26 05:46:41;;;;;;;219.47;65.50;;;;;;;;;;4995115;28;20189;-48
2024/03/26 05:49:08;;;;;;;215.35;64.38;;;;;;;;;;4995379;28;20936;-46
2024/03/26 05:51:35;;;;;;;218.82;64.25;;;;;;;;;;4995214;28;20625;-47
2024/03/26 05:54:01;;;;;;;218.97;65.80;;;;;;;;;;4995225;28;20192;-48
2024/03/26 05:56:27;;;;;;;218.43;64.70;;;;;;;;;;4994769;28;20784;-47
2024/03/26 05:58:57;;;;;;;217.07;65.23;;;;;;;;;;4995152;28;20467;-46
2024/03/26 06:01:23;;;;;;;220.40;67.30;;;;;;;;;;4986392;28;20501;-47
2024/03/26 06:03:49;;;;;;;219.37;67.43;;;;;;;;;;4970472;28;20301;-47
2024/03/26 06:06:15;;;;;;;221.97;70.70;;;;;;;;;;4994346;28;20415;-46
2024/03/26 06:08:41;;;;;;;223.27;74.13;;;;;;;;;;4994457;28;20939;-48
2024/03/26 06:11:07;;;;;;;221.37;69.53;;;;;;;;;;4994142;28;20994;-48
2024/03/26 06:13:33;;;;;;;219.67;67.87;;;;;;;;;;4994316;28;20767;-47
2024/03/26 06:16:09;;;;;;;219.50;66.68;;;;;;;;;;4994018;28;20417;-46
2024/03/26 06:18:35;;;;;;;222.43;71.72;;;;;;;;;;4995030;28;20528;-46
2024/03/26 06:21:01;;;;;;;217.27;65.78;;;;;;;;;;4994776;28;20187;-46
2024/03/26 06:23:27;;;;;;;222.35;70.88;;;;;;;;;;4994714;28;20644;-46
2024/03/26 06:25:53;;;;;;;219.50;66.40;;;;;;;;;;4994603;28;20185;-46
2024/03/26 06:28:19;;;;;;;217.32;64.85;;;;;;;;;;4994972;28;20434;-46
2024/03/26 06:30:46;;;;;;;220.60;66.40;;;;;;;;;;4994469;28;20704;-47
2024/03/26 06:33:12;;;;;;;221.40;69.10;;;;;;;;;;4994477;28;20193;-48
2024/03/26 06:35:42;;;;;;;220.47;67.70;;;;;;;;;;4994187;28;20552;-47
2024/03/26 06:38:08;;;;;;;221.88;67.35;;;;;;;;;;4994405;28;20557;-47
2024/03/26 06:40:34;;;;;;;224.18;68.28;;;;;;;;;;4986299;28;20666;-46
2024/03/26 06:43:00;;;;;;;220.20;66.22;;;;;;;;;;4992110;28;20239;-47
2024/03/26 06:45:26;;;;;;;221.43;65.70;;;;;;;;;;4993612;28;20652;-47
2024/03/26 06:47:52;;;;;;;224.17;68.97;;;;;;;;;;4986302;28;20925;-46
2024/03/26 06:50:18;;;;;;;224.27;68.67;;;;;;;;;;4977985;28;20925;-46
2024/03/26 06:52:50;;;;;;;229.85;75.65;;;;;;;;;;4983288;28;20457;-46
2024/03/26 06:55:17;;;;;;;227.75;71.45;;;;;;;;;;4972757;28;20185;-46
2024/03/26 06:57:43;;;;;;;224.15;65.80;;;;;;;;;;4979360;28;20177;-46
2024/03/26 07:00:09;;;;;;;225.20;70.03;;;;;;;;;;4978493;28;20287;-46
2024/03/26 07:02:38;;;;;;;225.25;67.45;;;;;;;;;;4977664;28;20511;-46
2024/03/26 07:05:10;;;;;;;235.68;76.53;;;;;;;;;;4974672;28;20199;-46
2024/03/26 07:07:36;;;;;;;223.27;66.82;;;;;;;;;;4978544;28;20188;-46
2024/03/26 07:10:03;;;;;;;226.27;69.18;;;;;;;;;;4975911;28;20288;-46
2024/03/26 07:12:30;;;;;;;226.70;71.80;;;;;;;;;;4976871;28;20656;-46
2024/03/26 07:14:56;;;;;;;228.63;70.70;;;;;;;;;;4978002;28;20177;-46
2024/03/26 07:17:22;;;;;;;225.97;69.27;;;;;;;;;;4977237;28;20273;-46
2024/03/26 07:19:48;;;;;;;225.67;68.03;;;;;;;;;;4978812;28;20423;-46
2024/03/26 07:22:14;;;;;;;225.77;66.25;;;;;;;;;;4977477;28;20523;-46
2024/03/26 07:24:41;;;;;;;229.03;71.27;;;;;;;;;;4978585;28;20382;-46
2024/03/26 07:27:07;;;;;;;226.07;67.25;;;;;;;;;;4975660;28;20432;-46
2024/03/26 07:29:33;;;;;;;231.17;71.87;;;;;;;;;;4978360;28;20179;-46
2024/03/26 07:31:59;;;;;;;228.32;68.60;;;;;;;;;;4977499;28;20464;-46
2024/03/26 07:34:25;;;;;;;230.17;72.13;;;;;;;;;;4977124;28;20763;-46
2024/03/26 07:36:52;;;;;;;228.30;70.30;;;;;;;;;;4978120;28;21121;-46
2024/03/26 07:39:20;;;;;;;227.77;69.60;;;;;;;;;;4977000;28;20467;-46
2024/03/26 07:41:46;;;;;;;233.65;75.97;;;;;;;;;;4978425;28;20180;-46
2024/03/26 07:44:13;;;;;;;227.07;67.93;;;;;;;;;;4976845;28;20215;-46
2024/03/26 07:46:41;;;;;;;232.90;74.43;;;;;;;;;;4978083;28;20336;-46
2024/03/26 07:49:08;;;;;;;231.23;72.75;;;;;;;;;;4975143;28;20312;-46
2024/03/26 07:51:34;;;;;;;231.82;72.93;;;;;;;;;;4977972;28;20193;-46
2024/03/26 07:54:00;;;;;;;230.55;71.00;;;;;;;;;;4977169;28;20561;-45
2024/03/26 07:56:26;;;;;;;232.87;74.87;;;;;;;;;;4976774;28;20653;-46
2024/03/26 07:58:52;;;;;;;230.30;72.60;;;;;;;;;;4976647;28;20466;-45
2024/03/26 08:01:18;;;;;;;230.43;71.93;;;;;;;;;;4976575;28;20187;-46
2024/03/26 08:03:44;;;;;;;230.87;73.20;;;;;;;;;;4977925;28;20448;-46
2024/03/26 08:06:10;;;;;;;232.07;74.87;;;;;;;;;;4976267;28;20448;-46
2024/03/26 08:08:35;;;;;;;233.47;76.37;;;;;;;;;;4977882;28;20913;-46
2024/03/26 08:11:02;;;;;;;231.17;72.67;;;;;;;;;;4970345;28;20910;-46
2024/03/26 08:13:28;;;;;;;232.35;74.68;;;;;;;;;;4975213;28;20444;-46
2024/03/26 08:15:54;;;;;;;228.80;71.78;;;;;;;;;;4977169;28;20240;-46
2024/03/26 08:18:20;;;;;;;232.60;73.97;;;;;;;;;;4976309;28;20650;-46
2024/03/26 08:20:46;;;;;;;233.67;75.17;;;;;;;;;;4977809;28;20988;-46
2024/03/26 08:23:12;;;;;;;234.87;78.03;;;;;;;;;;4976030;28;20989;-46
2024/03/26 08:25:38;;;;;;;235.30;77.13;;;;;;;;;;4975900;28;20443;-46
2024/03/26 08:28:04;;;;;;;230.82;72.20;;;;;;;;;;4976186;28;20416;-46
2024/03/26 08:30:30;;;;;;;235.20;75.35;;;;;;;;;;4976333;28;20206;-46
2024/03/26 08:32:56;;;;;;;234.30;74.07;;;;;;;;;;4976521;28;20204;-46
2024/03/26 08:35:22;;;;;;;237.67;79.07;;;;;;;;;;4975824;28;20409;-46
2024/03/26 08:37:48;;;;;;;235.70;74.97;;;;;;;;;;4977414;28;20899;-46
2024/03/26 08:40:15;;;;;;;236.00;76.53;;;;;;;;;;4974563;28;20979;-46
2024/03/26 08:42:41;;;;;;;237.57;78.20;;;;;;;;;;4977299;28;20423;-46
2024/03/26 08:45:08;;;;;;;241.23;80.13;;;;;;;;;;4975561;28;20417;-46
2024/03/26 08:47:34;;;;;;;239.40;78.63;;;;;;;;;;4976946;28;20983;-46
2024/03/26 08:50:00;;;;;;;239.87;80.20;;;;;;;;;;4975835;28;20420;-47
2024/03/26 08:52:26;;;;;;;240.47;78.70;;;;;;;;;;4975766;28;20428;-47
2024/03/26 08:54:52;;;;;;;236.30;73.10;;;;;;;;;;4975288;28;20483;-46
2024/03/26 08:57:18;;;;;;;238.00;75.20;;;;;;;;;;4981008;28;20412;-46
2024/03/26 08:59:44;;;;;;;240.77;80.57;;;;;;;;;;4991693;28;20424;-47
2024/03/26 09:02:10;;;;;;;255.53;92.10;;;;;;;;;;4986789;28;20421;-46
2024/03/26 09:04:36;;;;;;;239.70;77.70;;;;;;;;;;4978601;28;20436;-46
2024/03/26 09:07:02;;;;;;;240.37;80.23;;;;;;;;;;4991284;28;20412;-46
2024/03/26 09:09:28;;;;;;;237.07;75.63;;;;;;;;;;4980186;28;20436;-47
2024/03/26 09:11:54;;;;;;;238.83;78.27;;;;;;;;;;4977436;28;20919;-46
2024/03/26 09:14:20;;;;;;;236.70;75.67;;;;;;;;;;4991324;28;20446;-46
2024/03/26 09:16:46;;;;;;;235.33;74.87;;;;;;;;;;4984728;28;20487;-46
2024/03/26 09:19:12;;;;;;;236.90;76.87;;;;;;;;;;4991713;28;20595;-47
2024/03/26 09:21:38;;;;;;;238.63;78.43;;;;;;;;;;4991622;28;20423;-47
2024/03/26 09:24:04;;;;;;;238.93;79.07;;;;;;;;;;4991480;28;20215;-47
2024/03/26 09:26:30;;;;;;;241.23;83.23;;;;;;;;;;4991349;28;20422;-46
2024/03/26 09:28:56;;;;;;;238.20;80.07;;;;;;;;;;4986139;28;20430;-46
2024/03/26 09:31:22;;;;;;;237.07;77.50;;;;;;;;;;4991426;28;20464;-47
2024/03/26 09:33:48;;;;;;;236.55;76.63;;;;;;;;;;4991338;28;21067;-47
2024/03/26 09:36:14;;;;;;;238.90;81.03;;;;;;;;;;4991090;28;20691;-46
2024/03/26 09:38:40;;;;;;;239.87;81.37;;;;;;;;;;4991306;28;20430;-46
2024/03/26 09:41:07;;;;;;;237.17;76.90;;;;;;;;;;4985509;28;20943;-47
2024/03/26 09:43:33;;;;;;;240.57;82.67;;;;;;;;;;4986461;28;20539;-46
2024/03/26 09:45:59;;;;;;;236.63;77.13;;;;;;;;;;4991130;28;20416;-46
2024/03/26 09:48:28;;;;;;;237.27;78.17;;;;;;;;;;4991504;28;20419;-46
2024/03/26 09:50:55;;;;;;;236.77;77.40;;;;;;;;;;4991279;28;20456;-47
2024/03/26 09:53:22;;;;;;;235.32;75.07;;;;;;;;;;4991228;28;20198;-47
2024/03/26 09:55:49;;;;;;;241.80;85.47;;;;;;;;;;4991026;28;20656;-46
2024/03/26 09:58:15;;;;;;;237.20;79.73;;;;;;;;;;4990934;28;20180;-46
2024/03/26 10:00:44;;;;;;;237.20;81.03;;;;;;;;;;4991037;28;20417;-47
2024/03/26 10:03:12;;;;;;;240.50;80.90;;;;;;;;;;4990844;28;20442;-46
2024/03/26 10:05:38;;;;;;;243.27;85.43;;;;;;;;;;4987399;28;20260;-46
2024/03/26 10:08:04;;;;;;;235.07;76.73;;;;;;;;;;4984715;28;20265;-46
2024/03/26 10:10:30;;;;;;;231.23;73.00;;;;;;;;;;4990900;28;20462;-46
2024/03/26 10:12:56;;;;;;;236.57;78.70;;;;;;;;;;4991160;28;20620;-46
2024/03/26 10:15:22;;;;;;;235.53;75.20;;;;;;;;;;4990452;28;20799;-46
2024/03/26 10:17:47;;;;;;;240.27;83.07;;;;;;;;;;4989199;28;20794;-47
2024/03/26 10:20:16;;;;;;;239.30;80.90;;;;;;;;;;4989551;28;20477;-46
2024/03/26 10:22:42;;;;;;;237.15;77.40;;;;;;;;;;4990114;28;20479;-46
2024/03/26 10:25:08;;;;;;;242.93;83.50;;;;;;;;;;4976640;28;20185;-46
2024/03/26 10:27:33;;;;;;;234.40;74.67;;;;;;;;;;4978314;28;20413;-46
2024/03/26 10:29:59;;;;;;;238.47;81.87;;;;;;;;;;4978149;28;20448;-47
2024/03/26 10:32:25;;;;;;;232.20;75.47;;;;;;;;;;4978438;28;20417;-46
2024/03/26 10:34:56;;;;;;;233.97;77.63;;;;;;;;;;4980380;28;20810;-46
2024/03/26 10:37:24;;;;;;;233.35;75.72;;;;;;;;;;4984508;28;20408;-46
2024/03/26 10:39:51;;;;;;;235.02;75.35;;;;;;;;;;4994637;28;20199;-46
2024/03/26 10:42:18;;;;;;;238.48;79.07;;;;;;;;;;4993392;28;20179;-46
2024/03/26 10:44:44;;;;;;;236.63;79.35;;;;;;;;;;4993658;28;20204;-47
2024/03/26 10:47:10;;;;;;;232.50;74.80;;;;;;;;;;4994104;28;20554;-46
2024/03/26 10:49:36;;;;;;;233.82;76.97;;;;;;;;;;4994197;28;20421;-46
2024/03/26 10:52:03;;;;;;;232.50;75.25;;;;;;;;;;4987238;28;20205;-46
2024/03/26 10:54:30;;;;;;;237.13;79.20;;;;;;;;;;4978254;28;20255;-46
2024/03/26 10:56:57;;;;;;;235.43;77.17;;;;;;;;;;4993949;28;20608;-46
2024/03/26 10:59:23;;;;;;;235.17;78.80;;;;;;;;;;4994229;28;20425;-46
2024/03/26 11:01:49;;;;;;;235.70;77.17;;;;;;;;;;4994140;28;20420;-46
2024/03/26 11:04:16;;;;;;;235.45;78.20;;;;;;;;;;4993968;28;20447;-45
2024/03/26 11:06:42;;;;;;;236.33;77.97;;;;;;;;;;4994354;28;20180;-46
2024/03/26 11:09:08;;;;;;;237.87;78.37;;;;;;;;;;4993707;28;20431;-48
2024/03/26 11:11:34;;;;;;;240.47;82.40;;;;;;;;;;4993777;28;20475;-46
2024/03/26 11:14:00;;;;;;;236.47;78.00;;;;;;;;;;4993828;28;20971;-46
2024/03/26 11:16:37;;;;;;;237.27;77.77;;;;;;;;;;4993481;28;20412;-46
2024/03/26 11:19:24;;;;;;;236.47;78.07;;;;;;;;;;4993774;28;20900;-46
2024/03/26 11:21:50;;;;;;;232.70;74.53;;;;;;;;;;4993843;28;20828;-47
2024/03/26 11:24:30;;;;;;;237.57;80.73;;;;;;;;;;4993829;28;20462;-46
2024/03/26 11:27:00;;;;;;;242.50;87.33;;;;;;;;;;4993417;28;20443;-47
2024/03/26 11:29:27;;;;;;;241.13;82.63;;;;;;;;;;4993751;28;20462;-46
2024/03/26 11:31:53;;;;;;;239.33;80.60;;;;;;;;;;4993138;28;20886;-46
2024/03/26 11:34:24;;;;;;;242.13;84.80;;;;;;;;;;4993611;28;20542;-46
2024/03/26 11:36:52;;;;;;;242.87;83.90;;;;;;;;;;4993364;28;20400;-46
2024/03/26 11:39:19;;;;;;;238.83;80.27;;;;;;;;;;4993519;28;20412;-46
2024/03/26 11:41:45;;;;;;;239.83;79.57;;;;;;;;;;4993292;28;20424;-47
2024/03/26 11:44:11;;;;;;;238.03;78.17;;;;;;;;;;4990993;28;20432;-47
2024/03/26 11:46:37;;;;;;;244.37;86.27;;;;;;;;;;4992692;28;20428;-46
2024/03/26 11:49:03;;;;;;;242.10;83.13;;;;;;;;;;4993373;28;20502;-47
2024/03/26 11:51:30;;;;;;;241.83;86.13;;;;;;;;;;4993150;28;20471;-47
2024/03/26 11:53:56;;;;;;;238.83;80.77;;;;;;;;;;4993326;28;20804;-46
2024/03/26 11:56:22;;;;;;;236.17;76.73;;;;;;;;;;4993033;28;20793;-46
2024/03/26 11:58:49;;;;;;;238.32;79.35;;;;;;;;;;4992834;28;20430;-46
2024/03/26 12:01:16;;;;;;;240.67;82.43;;;;;;;;;;4992978;28;20196;-46
2024/03/26 12:03:51;;;;;;;240.83;81.57;;;;;;;;;;4992704;28;20826;-47
2024/03/26 12:06:18;;;;;;;240.87;82.40;;;;;;;;;;4992756;28;20799;-46
2024/03/26 12:08:44;;;;;;;237.97;79.17;;;;;;;;;;4993003;28;20762;-47
2024/03/26 12:11:10;;;;;;;238.07;79.87;;;;;;;;;;4993262;28;20963;-47
2024/03/26 12:13:36;;;;;;;241.57;83.53;;;;;;;;;;4992984;28;20430;-47
2024/03/26 12:16:02;;;;;;;239.07;80.50;;;;;;;;;;4992594;28;20442;-47
2024/03/26 12:18:32;;;;;;;240.40;78.47;;;;;;;;;;4984643;28;20542;-46
2024/03/26 12:20:59;;;;;;;239.27;81.03;;;;;;;;;;4992614;28;20825;-47
2024/03/26 12:23:25;;;;;;;241.53;80.80;;;;;;;;;;4992279;28;20513;-47
2024/03/26 12:25:51;;;;;;;242.10;82.27;;;;;;;;;;4992463;28;20747;-47
2024/03/26 12:28:17;;;;;;;241.23;81.83;;;;;;;;;;4992339;28;20691;-46
2024/03/26 12:30:44;;;;;;;245.10;84.23;;;;;;;;;;4992330;28;20464;-47
2024/03/26 12:33:09;;;;;;;242.03;81.80;;;;;;;;;;4992594;28;20444;-47
2024/03/26 12:35:36;;;;;;;244.57;85.07;;;;;;;;;;4992347;28;20541;-46
2024/03/26 12:38:01;;;;;;;242.47;83.97;;;;;;;;;;4992474;28;20416;-47
2024/03/26 12:40:27;;;;;;;246.60;89.93;;;;;;;;;;4992384;28;21063;-47
2024/03/26 12:42:53;;;;;;;241.70;81.97;;;;;;;;;;4989810;28;20808;-47
2024/03/26 12:45:19;;;;;;;241.83;80.37;;;;;;;;;;4991360;28;20416;-47
2024/03/26 12:47:45;;;;;;;241.07;80.97;;;;;;;;;;4992045;28;20767;-47
2024/03/26 12:50:11;;;;;;;243.00;82.90;;;;;;;;;;4992193;28;20426;-47
2024/03/26 12:52:39;;;;;;;241.50;82.17;;;;;;;;;;4992117;28;20459;-47
2024/03/26 12:55:05;;;;;;;245.43;85.20;;;;;;;;;;4991947;28;20413;-47
2024/03/26 12:57:31;;;;;;;240.00;80.73;;;;;;;;;;4992045;28;20412;-47
2024/03/26 12:59:58;;;;;;;241.83;81.23;;;;;;;;;;4988705;28;20418;-45
2024/03/26 13:02:23;;;;;;;239.20;81.13;;;;;;;;;;4980570;28;20535;-44
2024/03/26 13:04:49;;;;;;;242.23;83.27;;;;;;;;;;4972750;28;20440;-45
2024/03/26 13:07:15;;;;;;;240.87;80.23;;;;;;;;;;4978017;28;20422;-45
2024/03/26 13:09:41;;;;;;;245.60;86.63;;;;;;;;;;4975890;28;20411;-45
2024/03/26 13:12:08;;;;;;;243.70;85.17;;;;;;;;;;4984063;28;20467;-45
2024/03/26 13:14:33;;;;;;;243.23;85.37;;;;;;;;;;4976397;28;20975;-45
2024/03/26 13:16:59;;;;;;;242.77;84.73;;;;;;;;;;4980181;28;20453;-45
2024/03/26 13:19:27;;;;;;;243.17;82.83;;;;;;;;;;4980815;28;20414;-45
2024/03/26 13:21:53;;;;;;;242.97;85.37;;;;;;;;;;4980286;28;20412;-45
2024/03/26 13:24:19;;;;;;;242.73;83.17;;;;;;;;;;4987563;28;20451;-47
2024/03/26 13:26:45;;;;;;;242.43;83.40;;;;;;;;;;4975647;28;20426;-45
2024/03/26 13:29:11;;;;;;;242.13;81.63;;;;;;;;;;4983682;28;20417;-47
2024/03/26 13:31:37;;;;;;;246.67;89.57;;;;;;;;;;4975494;28;20466;-46
2024/03/26 13:34:03;;;;;;;243.17;82.33;;;;;;;;;;4983684;28;20566;-47
2024/03/26 13:36:29;;;;;;;247.03;91.17;;;;;;;;;;4991400;28;20476;-45
2024/03/26 13:38:55;;;;;;;242.87;84.03;;;;;;;;;;4979737;28;20501;-45
2024/03/26 13:41:21;;;;;;;245.27;89.10;;;;;;;;;;4988143;28;20433;-46
2024/03/26 13:43:47;;;;;;;244.40;86.63;;;;;;;;;;4983546;28;20448;-48
2024/03/26 13:46:13;;;;;;;244.97;86.60;;;;;;;;;;4991473;28;20421;-46
2024/03/26 13:48:39;;;;;;;242.13;85.37;;;;;;;;;;4981464;28;20428;-45
2024/03/26 13:51:05;;;;;;;245.73;87.93;;;;;;;;;;4977511;28;20497;-46
2024/03/26 13:53:31;;;;;;;246.00;88.30;;;;;;;;;;4991171;28;20488;-45
2024/03/26 13:55:57;;;;;;;242.20;83.53;;;;;;;;;;4985367;28;20713;-47
2024/03/26 13:58:23;;;;;;;245.60;88.83;;;;;;;;;;4979540;28;20415;-47
2024/03/26 14:00:49;;;;;;;240.70;81.07;;;;;;;;;;4995276;28;20691;-45